createdAt,value
2023-05-19T00:00:02.218Z,101337.53
2023-05-19T00:02:39.652Z,101335.94
2023-05-19T00:05:08.402Z,101332.44
2023-05-19T00:07:41.570Z,101327.03
2023-05-19T00:10:09.910Z,101332.94
2023-05-19T00:12:37.699Z,101330.84
2023-05-19T00:15:05.713Z,101332.69
2023-05-19T00:17:41.051Z,101331.59
2023-05-19T00:20:09.265Z,101326.13
2023-05-19T00:22:37.116Z,101328.81
2023-05-19T00:25:06.275Z,101327.81
2023-05-19T00:27:33.299Z,101332.25
2023-05-19T00:30:00.289Z,101330.53
2023-05-19T00:32:27.516Z,101329.53
2023-05-19T00:34:54.476Z,101326.13
2023-05-19T00:37:22.098Z,101326.13
2023-05-19T00:39:49.861Z,101331.59
2023-05-19T00:42:16.924Z,101327.28
2023-05-19T00:44:44.021Z,101326.69
2023-05-19T00:47:11.066Z,101324.22
2023-05-19T00:49:38.663Z,101318.09
2023-05-19T00:52:07.318Z,101316.25
2023-05-19T00:54:35.161Z,101312.56
2023-05-19T00:57:03.567Z,101319.81
2023-05-19T00:59:38.478Z,101321.53
2023-05-19T01:02:06.250Z,101314.50
2023-05-19T01:04:34.993Z,101317.13
2023-05-19T01:07:03.577Z,101312.81
2023-05-19T01:09:32.257Z,101310.34
2023-05-19T01:12:01.147Z,101311.34
2023-05-19T01:14:29.773Z,101313.19
2023-05-19T01:17:58.351Z,101314.28
2023-05-19T01:20:36.346Z,101305.69
2023-05-19T01:23:36.881Z,101304.09
2023-05-19T01:26:47.460Z,101302.59
2023-05-19T01:29:32.431Z,101306.44
2023-05-19T01:32:00.912Z,101306.44
2023-05-19T01:34:29.608Z,101305.56
2023-05-19T01:36:58.408Z,101297.59
2023-05-19T01:39:28.560Z,101310.25
2023-05-19T01:41:58.250Z,101305.69
2023-05-19T01:44:25.691Z,101304.84
2023-05-19T01:46:54.949Z,101303.22
2023-05-19T01:49:22.251Z,101313.28
2023-05-19T01:51:49.596Z,101305.31
2023-05-19T01:54:16.669Z,101309.13
2023-05-19T01:57:18.810Z,101310.09
2023-05-19T02:00:09.402Z,101301.50
2023-05-19T02:02:59.301Z,101300.63
2023-05-19T02:05:56.742Z,101310.59
2023-05-19T02:08:48.384Z,101309.84
2023-05-19T02:11:25.448Z,101306.41
2023-05-19T02:13:56.956Z,101296.56
2023-05-19T02:16:29.470Z,101297.56
2023-05-19T02:18:57.371Z,101303.81
2023-05-19T02:21:24.462Z,101297.56
2023-05-19T02:23:51.646Z,101296.72
2023-05-19T02:26:20.130Z,101295.00
2023-05-19T02:28:47.135Z,101298.66
2023-05-19T02:31:14.103Z,101293.41
2023-05-19T02:33:41.322Z,101292.78
2023-05-19T02:36:10.112Z,101297.19
2023-05-19T02:38:37.693Z,101289.22
2023-05-19T02:41:04.709Z,101292.88
2023-05-19T02:43:31.732Z,101300.13
2023-05-19T02:45:58.890Z,101300.97
2023-05-19T02:48:26.922Z,101298.28
2023-05-19T02:50:53.937Z,101291.94
2023-05-19T02:53:20.951Z,101300.88
2023-05-19T02:55:47.962Z,101299.28
2023-05-19T02:58:14.940Z,101300.25
2023-05-19T03:00:41.944Z,101301.22
2023-05-19T03:03:10.452Z,101307.47
2023-05-19T03:05:37.719Z,101309.09
2023-05-19T03:08:04.869Z,101306.28
2023-05-19T03:10:32.136Z,101301.84
2023-05-19T03:12:59.252Z,101304.66
2023-05-19T03:15:26.313Z,101300.38
2023-05-19T03:17:53.385Z,101294.09
2023-05-19T03:20:20.482Z,101302.97
2023-05-19T03:22:47.782Z,101302.97
2023-05-19T03:25:15.158Z,101300.25
2023-05-19T03:27:42.567Z,101302.81
2023-05-19T03:30:10.479Z,101305.44
2023-05-19T03:32:52.256Z,101307.13
2023-05-19T03:35:19.865Z,101303.69
2023-05-19T03:37:46.956Z,101304.66
2023-05-19T03:40:14.194Z,101311.06
2023-05-19T03:42:43.430Z,101309.22
2023-05-19T03:45:11.054Z,101308.22
2023-05-19T03:47:38.328Z,101310.94
2023-05-19T03:50:24.703Z,101317.19
2023-05-19T03:52:55.728Z,101317.31
2023-05-19T03:55:31.984Z,101320.00
2023-05-19T03:57:59.038Z,101324.44
2023-05-19T04:00:26.029Z,101322.47
2023-05-19T04:02:53.122Z,101324.19
2023-05-19T04:05:20.150Z,101325.03
2023-05-19T04:07:47.154Z,101330.44
2023-05-19T04:10:14.276Z,101331.19
2023-05-19T04:12:41.636Z,101334.84
2023-05-19T04:15:11.492Z,101326.75
2023-05-19T04:17:39.165Z,101346.41
2023-05-19T04:20:07.020Z,101332.91
2023-05-19T04:22:34.582Z,101337.47
2023-05-19T04:25:01.822Z,101339.28
2023-05-19T04:27:30.151Z,101345.56
2023-05-19T04:29:58.214Z,101350.81
2023-05-19T04:32:25.783Z,101357.22
2023-05-19T04:34:54.632Z,101356.34
2023-05-19T04:37:26.391Z,101347.50
2023-05-19T04:39:54.333Z,101354.75
2023-05-19T04:42:26.207Z,101356.59
2023-05-19T04:44:54.484Z,101365.56
2023-05-19T04:47:28.345Z,101354.88
2023-05-19T04:49:56.274Z,101362.22
2023-05-19T04:52:23.905Z,101365.06
2023-05-19T04:54:52.937Z,101358.06
2023-05-19T04:57:20.396Z,101364.31
2023-05-19T04:59:48.081Z,101366.16
2023-05-19T05:02:16.368Z,101361.59
2023-05-19T05:04:44.218Z,101365.28
2023-05-19T05:07:11.413Z,101361.84
2023-05-19T05:09:39.094Z,101362.59
2023-05-19T05:12:08.103Z,101367.25
2023-05-19T05:14:37.686Z,101369.94
2023-05-19T05:17:05.235Z,101376.19
2023-05-19T05:19:35.370Z,101365.53
2023-05-19T05:22:02.889Z,101374.50
2023-05-19T05:24:32.045Z,101368.34
2023-05-19T05:27:01.444Z,101364.78
2023-05-19T05:29:29.045Z,101360.22
2023-05-19T05:31:56.271Z,101374.81
2023-05-19T05:34:23.750Z,101373.09
2023-05-19T05:36:51.116Z,101381.22
2023-05-19T05:39:19.024Z,101386.50
2023-05-19T05:41:46.293Z,101386.38
2023-05-19T05:44:13.407Z,101383.69
2023-05-19T05:46:43.864Z,101376.66
2023-05-19T05:49:13.978Z,101378.50
2023-05-19T05:51:51.377Z,101379.38
2023-05-19T05:54:33.602Z,101387.47
2023-05-19T05:57:02.740Z,101384.66
2023-05-19T05:59:30.172Z,101380.22
2023-05-19T06:01:57.291Z,101385.63
2023-05-19T06:04:40.846Z,101388.31
2023-05-19T06:07:08.443Z,101397.53
2023-05-19T06:09:37.987Z,101402.06
2023-05-19T06:12:06.935Z,101398.41
2023-05-19T06:14:43.196Z,101397.53
2023-05-19T06:17:22.780Z,101401.09
2023-05-19T06:19:55.115Z,101408.19
2023-05-19T06:22:22.834Z,101408.97
2023-05-19T06:24:50.490Z,101401.81
2023-05-19T06:27:19.829Z,101409.91
2023-05-19T06:29:48.417Z,101408.97
2023-05-19T06:32:20.848Z,101405.28
2023-05-19T06:34:55.058Z,101410.66
2023-05-19T06:37:23.487Z,101413.38
2023-05-19T06:40:04.274Z,101405.28
2023-05-19T06:42:34.590Z,101417.06
2023-05-19T06:45:29.900Z,101409.19
2023-05-19T06:48:00.769Z,101407.44
2023-05-19T06:50:30.013Z,101419.22
2023-05-19T06:53:03.069Z,101409.44
2023-05-19T06:56:26.403Z,101421.22
2023-05-19T06:58:56.318Z,101412.22
2023-05-19T07:01:30.403Z,101426.59
2023-05-19T07:03:58.826Z,101423.78
2023-05-19T07:06:50.980Z,101420.00
2023-05-19T07:09:29.740Z,101424.53
2023-05-19T07:11:57.984Z,101426.13
2023-05-19T07:14:25.347Z,101427.00
2023-05-19T07:16:52.630Z,101419.53
2023-05-19T07:19:20.044Z,101412.28
2023-05-19T07:21:51.197Z,101419.63
2023-05-19T07:24:18.385Z,101408.72
2023-05-19T07:26:54.836Z,101419.53
2023-05-19T07:29:21.976Z,101418.69
2023-05-19T07:31:54.175Z,101416.94
2023-05-19T07:34:22.006Z,101414.22
2023-05-19T07:36:49.167Z,101423.31
2023-05-19T07:39:27.941Z,101414.22
2023-05-19T07:41:57.692Z,101422.31
2023-05-19T07:44:46.785Z,101419.22
2023-05-19T07:47:14.662Z,101424.63
2023-05-19T07:52:27.722Z,101432.72
2023-05-19T07:54:54.834Z,101422.78
2023-05-19T07:57:22.357Z,101421.94
2023-05-19T07:59:49.641Z,101428.41
2023-05-19T08:02:16.763Z,101421.31
2023-05-19T08:04:45.981Z,101423.78
2023-05-19T08:07:16.364Z,101424.53
2023-05-19T08:09:43.574Z,101422.56
2023-05-19T08:12:10.626Z,101422.56
2023-05-19T08:14:38.835Z,101421.47
2023-05-19T08:17:06.324Z,101419.53
2023-05-19T08:19:33.425Z,101427.41
2023-05-19T08:22:03.699Z,101420.03
2023-05-19T08:24:47.021Z,101426.19
2023-05-19T08:27:34.765Z,101421.00
2023-05-19T08:30:02.459Z,101421.63
2023-05-19T08:32:30.248Z,101425.09
2023-05-19T08:34:57.782Z,101426.66
2023-05-19T08:37:24.816Z,101418.34
2023-05-19T08:39:51.863Z,101420.81
2023-05-19T08:42:18.906Z,101422.78
2023-05-19T08:44:45.949Z,101425.13
2023-05-19T08:47:14.351Z,101425.97
2023-05-19T08:49:47.430Z,101422.31
2023-05-19T08:52:18.227Z,101420.47
2023-05-19T08:55:01.124Z,101427.34
2023-05-19T08:57:29.227Z,101424.78
2023-05-19T08:59:57.050Z,101418.16
2023-05-19T09:02:24.649Z,101419.63
2023-05-19T09:04:53.365Z,101421.47
2023-05-19T09:07:21.972Z,101419.53
2023-05-19T09:09:50.367Z,101428.13
2023-05-19T09:12:17.616Z,101422.59
2023-05-19T09:14:44.754Z,101418.91
2023-05-19T09:17:12.059Z,101416.22
2023-05-19T09:19:44.473Z,101422.94
2023-05-19T09:22:12.071Z,101425.25
2023-05-19T09:24:40.522Z,101425.03
2023-05-19T09:27:08.477Z,101425.53
2023-05-19T09:29:35.636Z,101429.09
2023-05-19T09:32:05.197Z,101425.31
2023-05-19T09:34:32.416Z,101428.63
2023-05-19T09:37:14.213Z,101437.59
2023-05-19T09:39:41.304Z,101427.03
2023-05-19T09:42:08.453Z,101430.72
2023-05-19T09:44:38.129Z,101428.25
2023-05-19T09:47:05.362Z,101424.66
2023-05-19T09:49:33.008Z,101422.31
2023-05-19T09:52:06.659Z,101420.72
2023-05-19T09:54:34.721Z,101426.13
2023-05-19T09:57:07.056Z,101417.06
2023-05-19T09:59:36.628Z,101418.53
2023-05-19T10:02:03.975Z,101417.31
2023-05-19T10:04:31.896Z,101404.41
2023-05-19T10:06:59.923Z,101409.81
2023-05-19T10:09:47.523Z,101409.59
2023-05-19T10:12:15.206Z,101407.88
2023-05-19T10:14:42.464Z,101405.78
2023-05-19T10:17:10.500Z,101407.63
2023-05-19T10:19:38.818Z,101411.06
2023-05-19T10:22:13.193Z,101406.41
2023-05-19T10:24:40.627Z,101414.28
2023-05-19T10:27:14.838Z,101410.47
2023-05-19T10:29:49.269Z,101412.31
2023-05-19T10:32:35.573Z,101408.00
2023-05-19T10:35:33.281Z,101410.94
2023-05-19T10:38:43.027Z,101418.06
2023-05-19T10:41:48.295Z,101416.59
2023-05-19T10:45:05.143Z,101414.66
2023-05-19T10:47:33.737Z,101417.09
2023-05-19T10:50:01.497Z,101405.41
2023-05-19T10:52:31.078Z,101409.84
2023-05-19T10:54:58.566Z,101412.56
2023-05-19T10:57:32.188Z,101411.06
2023-05-19T11:00:14.346Z,101408.59
2023-05-19T11:02:44.130Z,101406.03
2023-05-19T11:05:18.544Z,101407.75
2023-05-19T11:07:57.259Z,101410.56
2023-05-19T11:10:24.641Z,101409.81
2023-05-19T11:12:52.319Z,101408.13
2023-05-19T11:15:27.545Z,101410.81
2023-05-19T11:17:55.386Z,101404.78
2023-05-19T11:20:24.789Z,101404.28
2023-05-19T11:23:06.091Z,101409.44
2023-05-19T11:25:53.964Z,101412.16
2023-05-19T11:28:29.343Z,101411.75
2023-05-19T11:30:59.223Z,101404.75
2023-05-19T11:33:30.206Z,101411.38
2023-05-19T11:36:00.597Z,101407.91
2023-05-19T11:38:30.194Z,101403.28
2023-05-19T11:40:58.369Z,101401.19
2023-05-19T11:43:26.666Z,101401.09
2023-05-19T11:45:55.980Z,101391.38
2023-05-19T11:48:25.435Z,101392.97
2023-05-19T11:50:52.828Z,101391.25
2023-05-19T11:53:23.337Z,101395.53
2023-05-19T11:55:51.305Z,101397.25
2023-05-19T11:58:27.024Z,101390.00
2023-05-19T12:00:54.628Z,101391.22
2023-05-19T12:03:26.578Z,101397.34
2023-05-19T12:05:54.694Z,101402.03
2023-05-19T12:08:27.815Z,101395.53
2023-05-19T12:10:56.270Z,101393.69
2023-05-19T12:13:23.496Z,101397.47
2023-05-19T12:15:53.723Z,101392.94
2023-05-19T12:18:21.327Z,101396.00
2023-05-19T12:20:48.726Z,101398.72
2023-05-19T12:23:16.645Z,101391.47
2023-05-19T12:25:47.583Z,101395.03
2023-05-19T12:28:17.011Z,101391.47
2023-05-19T12:30:48.827Z,101390.47
2023-05-19T12:33:16.665Z,101394.66
2023-05-19T12:35:44.638Z,101391.00
2023-05-19T12:38:12.074Z,101392.94
2023-05-19T12:40:44.343Z,101393.06
2023-05-19T12:43:23.230Z,101393.06
2023-05-19T12:45:50.482Z,101382.28
2023-05-19T12:48:18.065Z,101386.69
2023-05-19T12:50:45.349Z,101387.53
2023-05-19T12:53:13.539Z,101385.06
2023-05-19T12:55:46.177Z,101392.22
2023-05-19T12:58:15.998Z,101384.84
2023-05-19T13:00:47.466Z,101391.00
2023-05-19T13:03:18.177Z,101377.34
2023-05-19T13:05:48.911Z,101382.41
2023-05-19T13:08:34.021Z,101384.97
2023-05-19T13:11:02.292Z,101386.97
2023-05-19T13:13:29.984Z,101385.22
2023-05-19T13:15:57.088Z,101387.19
2023-05-19T13:18:24.613Z,101381.78
2023-05-19T13:20:55.293Z,101383.75
2023-05-19T13:23:22.396Z,101389.16
2023-05-19T13:25:50.908Z,101377.34
2023-05-19T13:28:18.482Z,101373.03
2023-05-19T13:30:46.306Z,101379.56
2023-05-19T13:33:13.583Z,101380.44
2023-05-19T13:35:40.908Z,101382.28
2023-05-19T13:38:10.316Z,101385.22
2023-05-19T13:40:40.773Z,101389.13
2023-05-19T13:43:08.852Z,101380.03
2023-05-19T13:45:36.568Z,101378.56
2023-05-19T13:48:04.164Z,101380.38
2023-05-19T13:50:31.408Z,101371.31
2023-05-19T13:52:59.082Z,101377.34
2023-05-19T13:55:27.582Z,101372.78
2023-05-19T13:57:55.636Z,101369.84
2023-05-19T14:00:23.177Z,101378.59
2023-05-19T14:02:50.354Z,101368.88
2023-05-19T14:05:17.569Z,101366.53
2023-05-19T14:07:44.826Z,101368.50
2023-05-19T14:10:12.513Z,101363.09
2023-05-19T14:12:49.371Z,101355.59
2023-05-19T14:15:20.541Z,101363.09
2023-05-19T14:17:49.168Z,101362.22
2023-05-19T14:20:17.556Z,101363.59
2023-05-19T14:22:47.249Z,101360.66
2023-05-19T14:25:14.352Z,101346.94
2023-05-19T14:27:41.376Z,101349.50
2023-05-19T14:30:11.580Z,101344.84
2023-05-19T14:32:38.933Z,101341.16
2023-05-19T14:35:06.763Z,101342.38
2023-05-19T14:37:34.349Z,101343.09
2023-05-19T14:40:02.384Z,101344.09
2023-05-19T14:42:29.621Z,101343.09
2023-05-19T14:44:56.778Z,101333.19
2023-05-19T14:47:25.654Z,101343.47
2023-05-19T14:49:53.534Z,101348.88
2023-05-19T14:52:21.227Z,101344.47
2023-05-19T14:54:52.068Z,101343.47
2023-05-19T14:57:19.657Z,101344.81
2023-05-19T14:59:47.264Z,101342.97
2023-05-19T15:02:16.552Z,101342.25
2023-05-19T15:04:43.638Z,101335.47
2023-05-19T15:07:11.272Z,101336.22
2023-05-19T15:09:39.734Z,101325.41
2023-05-19T15:12:06.782Z,101330.81
2023-05-19T15:14:33.882Z,101325.28
2023-05-19T15:17:01.889Z,101328.72
2023-05-19T15:19:29.490Z,101323.34
2023-05-19T15:21:56.777Z,101318.78
2023-05-19T15:24:24.420Z,101319.41
2023-05-19T15:26:52.553Z,101320.25
2023-05-19T15:29:20.017Z,101324.94
2023-05-19T15:31:51.876Z,101319.53
2023-05-19T15:34:23.187Z,101318.66
2023-05-19T15:36:50.511Z,101322.25
2023-05-19T15:39:18.060Z,101323.09
2023-05-19T15:41:45.236Z,101313.88
2023-05-19T15:44:12.550Z,101321.34
2023-05-19T15:46:39.699Z,101320.72
2023-05-19T15:49:07.857Z,101315.44
2023-05-19T15:51:35.806Z,101310.25
2023-05-19T15:54:03.998Z,101305.22
2023-05-19T15:56:31.599Z,101306.09
2023-05-19T15:58:59.106Z,101308.94
2023-05-19T16:01:27.180Z,101302.13
2023-05-19T16:03:55.077Z,101303.09
2023-05-19T16:06:22.404Z,101302.81
2023-05-19T16:09:05.511Z,101306.28
2023-05-19T16:11:32.648Z,101299.16
2023-05-19T16:13:59.824Z,101300.97
2023-05-19T16:16:27.007Z,101294.72
2023-05-19T16:18:54.422Z,101295.81
2023-05-19T16:21:22.446Z,101292.88
2023-05-19T16:23:49.637Z,101292.88
2023-05-19T16:26:16.880Z,101293.78
2023-05-19T16:28:44.066Z,101292.03
2023-05-19T16:31:11.373Z,101280.00
2023-05-19T16:33:38.509Z,101280.00
2023-05-19T16:36:07.594Z,101274.84
2023-05-19T16:38:34.856Z,101273.13
2023-05-19T16:41:03.689Z,101275.59
2023-05-19T16:43:33.514Z,101275.34
2023-05-19T16:46:03.575Z,101281.22
2023-05-19T16:48:31.033Z,101278.16
2023-05-19T16:50:58.204Z,101279.84
2023-05-19T16:53:25.322Z,101280.63
2023-05-19T16:55:55.484Z,101276.06
2023-05-19T16:58:22.875Z,101276.94
2023-05-19T17:00:53.739Z,101286.88
2023-05-19T17:03:21.012Z,101282.69
2023-05-19T17:05:52.975Z,101279.00
2023-05-19T17:08:20.914Z,101289.78
2023-05-19T17:10:48.120Z,101290.78
2023-05-19T17:13:15.233Z,101285.53
2023-05-19T17:15:43.371Z,101290.03
2023-05-19T17:18:12.620Z,101287.78
2023-05-19T17:20:39.821Z,101295.03
2023-05-19T17:23:07.241Z,101294.81
2023-05-19T17:25:34.787Z,101301.06
2023-05-19T17:28:01.967Z,101305.09
2023-05-19T17:30:29.154Z,101297.09
2023-05-19T17:32:59.005Z,101296.38
2023-05-19T17:35:28.298Z,101296.38
2023-05-19T17:37:55.637Z,101299.09
2023-05-19T17:40:22.711Z,101300.16
2023-05-19T17:42:50.323Z,101293.91
2023-05-19T17:45:17.790Z,101298.69
2023-05-19T17:47:44.834Z,101290.47
2023-05-19T17:50:11.984Z,101303.09
2023-05-19T17:52:40.882Z,101302.25
2023-05-19T17:55:09.608Z,101307.88
2023-05-19T17:57:39.927Z,101308.81
2023-05-19T18:00:10.652Z,101315.19
2023-05-19T18:02:39.673Z,101318.97
2023-05-19T18:05:07.809Z,101316.41
2023-05-19T18:07:41.275Z,101311.13
2023-05-19T18:10:11.263Z,101314.81
2023-05-19T18:12:38.440Z,101318.50
2023-05-19T18:15:06.732Z,101312.34
2023-05-19T18:17:33.930Z,101311.84
2023-05-19T18:20:04.170Z,101303.00
2023-05-19T18:22:31.525Z,101307.41
2023-05-19T18:24:58.682Z,101308.38
2023-05-19T18:27:27.847Z,101306.66
2023-05-19T18:29:54.989Z,101302.22
2023-05-19T18:32:22.043Z,101297.81
2023-05-19T18:34:51.003Z,101301.81
2023-05-19T18:37:18.341Z,101297.28
2023-05-19T18:39:47.477Z,101307.00
2023-05-19T18:42:14.580Z,101310.44
2023-05-19T18:44:42.330Z,101304.06
2023-05-19T18:47:09.715Z,101313.88
2023-05-19T18:49:36.868Z,101310.31
2023-05-19T18:52:04.268Z,101313.00
2023-05-19T18:54:32.599Z,101311.31
2023-05-19T18:57:07.238Z,101314.97
2023-05-19T18:59:35.082Z,101314.84
2023-05-19T19:02:05.358Z,101312.16
2023-05-19T19:04:33.603Z,101311.19
2023-05-19T19:07:01.372Z,101316.56
2023-05-19T19:09:28.710Z,101313.88
2023-05-19T19:11:55.874Z,101322.94
2023-05-19T19:14:23.117Z,101314.00
2023-05-19T19:16:50.249Z,101313.16
2023-05-19T19:19:17.382Z,101315.84
2023-05-19T19:21:48.751Z,101318.53
2023-05-19T19:24:16.087Z,101317.78
2023-05-19T19:26:43.216Z,101318.00
2023-05-19T19:29:10.392Z,101313.59
2023-05-19T19:31:37.771Z,101316.50
2023-05-19T19:34:09.194Z,101321.06
2023-05-19T19:36:36.572Z,101323.75
2023-05-19T19:39:03.732Z,101325.69
2023-05-19T19:41:32.267Z,101321.28
2023-05-19T19:43:59.463Z,101325.19
2023-05-19T19:46:26.718Z,101320.66
2023-05-19T19:48:58.190Z,101326.03
2023-05-19T19:51:25.395Z,101322.47
2023-05-19T19:53:52.725Z,101323.56
2023-05-19T19:56:23.658Z,101329.94
2023-05-19T19:58:51.402Z,101332.63
2023-05-19T20:01:23.556Z,101336.06
2023-05-19T20:03:52.026Z,101337.78
2023-05-19T20:06:19.354Z,101333.25
2023-05-19T20:08:52.482Z,101334.97
2023-05-19T20:11:22.977Z,101331.44
2023-05-19T20:13:50.487Z,101334.97
2023-05-19T20:16:17.585Z,101329.69
2023-05-19T20:18:45.192Z,101334.22
2023-05-19T20:21:13.408Z,101336.28
2023-05-19T20:23:40.827Z,101348.03
2023-05-19T20:26:13.038Z,101338.25
2023-05-19T20:29:13.412Z,101339.19
2023-05-19T20:31:42.418Z,101344.72
2023-05-19T20:34:09.771Z,101345.56
2023-05-19T20:36:37.061Z,101335.78
2023-05-19T20:39:11.680Z,101336.63
2023-05-19T20:41:38.897Z,101340.06
2023-05-19T20:44:06.542Z,101339.19
2023-05-19T20:46:34.034Z,101339.31
2023-05-19T20:49:01.809Z,101342.75
2023-05-19T20:51:29.265Z,101346.34
2023-05-19T20:54:05.522Z,101348.03
2023-05-19T20:56:33.030Z,101358.59
2023-05-19T20:59:00.068Z,101368.31
2023-05-19T21:01:28.374Z,101357.53
2023-05-19T21:03:58.114Z,101360.09
2023-05-19T21:06:25.217Z,101357.19
2023-05-19T21:08:52.263Z,101356.19
2023-05-19T21:11:21.678Z,101351.78
2023-05-19T21:13:50.195Z,101354.47
2023-05-19T21:16:17.272Z,101345.53
2023-05-19T21:18:44.444Z,101342.84
2023-05-19T21:21:11.928Z,101342.84
2023-05-19T21:23:38.964Z,101338.44
2023-05-19T21:26:07.419Z,101349.31
2023-05-19T21:28:34.824Z,101336.81
2023-05-19T21:31:05.438Z,101344.91
2023-05-19T21:33:47.940Z,101335.97
2023-05-19T21:36:45.796Z,101329.69
2023-05-19T21:39:18.665Z,101323.44
2023-05-19T21:42:00.083Z,101326.97
2023-05-19T21:44:34.271Z,101326.13
2023-05-19T21:47:01.967Z,101320.00
2023-05-19T21:49:29.978Z,101322.72
2023-05-19T21:51:57.373Z,101320.09
2023-05-19T21:54:24.668Z,101322.81
2023-05-19T21:56:56.119Z,101334.22
2023-05-19T21:59:24.821Z,101330.66
2023-05-19T22:01:52.525Z,101329.69
2023-05-19T22:04:21.325Z,101327.88
2023-05-19T22:06:48.637Z,101332.38
2023-05-19T22:09:16.771Z,101331.44
2023-05-19T22:11:44.132Z,101325.91
2023-05-19T22:14:11.646Z,101326.66
2023-05-19T22:16:40.569Z,101328.50
2023-05-19T22:19:08.201Z,101317.94
2023-05-19T22:21:35.633Z,101323.34
2023-05-19T22:24:05.266Z,101314.41
2023-05-19T22:26:35.893Z,101322.56
2023-05-19T22:29:06.259Z,101320.88
2023-05-19T22:31:33.311Z,101313.00
2023-05-19T22:34:00.846Z,101311.16
2023-05-19T22:36:28.420Z,101313.00
2023-05-19T22:38:55.696Z,101304.78
2023-05-19T22:41:23.831Z,101300.28
2023-05-19T22:43:50.920Z,101301.00
2023-05-19T22:46:17.954Z,101307.16
2023-05-19T22:48:45.761Z,101299.09
2023-05-19T22:51:14.045Z,101297.34
2023-05-19T22:53:42.795Z,101301.00
2023-05-19T22:56:09.752Z,101297.59
2023-05-19T22:58:40.596Z,101293.06
2023-05-19T23:01:08.930Z,101285.81
2023-05-19T23:03:36.187Z,101293.91
2023-05-19T23:06:03.248Z,101278.72
2023-05-19T23:08:30.389Z,101282.38
2023-05-19T23:11:01.127Z,101280.53
2023-05-19T23:13:28.495Z,101276.97
2023-05-19T23:15:55.524Z,101281.41
2023-05-19T23:18:22.645Z,101281.41
2023-05-19T23:21:06.584Z,101280.44
2023-05-19T23:23:35.875Z,101273.06
2023-05-19T23:26:03.761Z,101265.88
2023-05-19T23:28:30.851Z,101263.06
2023-05-19T23:30:57.997Z,101269.06
2023-05-19T23:33:24.994Z,101266.28
2023-05-19T23:35:51.982Z,101252.78
2023-05-19T23:38:18.938Z,101270.56
2023-05-19T23:40:45.977Z,101271.53
2023-05-19T23:43:13.244Z,101271.66
2023-05-19T23:45:40.286Z,101268.13
2023-05-19T23:48:07.352Z,101269.94
2023-05-19T23:50:34.823Z,101276.22
2023-05-19T23:53:01.939Z,101268.13
2023-05-19T23:55:28.935Z,101266.28
2023-05-19T23:57:55.919Z,101262.59
